Wickliffe, Kentucky
Current Conditions -  °F | °C
As of 10:55 PM on Friday 31 Oct 2014 (Local Time) from KCIR Reporting Station
Clear Clear  
Wind Chill: 34°   Ceiling: Unl
Heat Index: 42°   Visibility: 10mi
Dew Point: 24°   Wind: 15mph
Humidity: 49%   Direction: 350°N
Pressure: 30.32"   Gusts: NA
Location:  36.96°N, 89.09°W
Report Text: KCIR 010355Z AUTO 35013KT 10SM CLR 05/M04 A3032 RMK AO2 T00541045
Loading
Personal Weather Stations






























Interactive Weather Map
Tropical Storm Tracking
New forecast layout! Learn more

10-Day Weather Forecast

Advertisements
Track Severe Weather on mobile